sensor_id;sensor_type;location;lat;lon;timestamp;pressure;altitude;pressure_sealevel;temperature;humidity
48527;BME280;34317;51.660;5.824;2022-12-18T00:01:41;102802.59;;;-0.80;57.10
48527;BME280;34317;51.660;5.824;2022-12-18T00:04:12;102799.94;;;-0.81;56.96
48527;BME280;34317;51.660;5.824;2022-12-18T00:06:41;102807.75;;;-0.81;57.29
48527;BME280;34317;51.660;5.824;2022-12-18T00:09:10;102806.81;;;-0.83;56.91
48527;BME280;34317;51.660;5.824;2022-12-18T00:11:37;102805.06;;;-0.84;56.97
48527;BME280;34317;51.660;5.824;2022-12-18T00:14:04;102803.19;;;-0.88;56.75
48527;BME280;34317;51.660;5.824;2022-12-18T00:16:31;102803.09;;;-0.91;56.82
48527;BME280;34317;51.660;5.824;2022-12-18T00:18:59;102802.97;;;-0.94;56.68
48527;BME280;34317;51.660;5.824;2022-12-18T00:21:27;102794.22;;;-0.96;56.87
48527;BME280;34317;51.660;5.824;2022-12-18T00:23:55;102801.09;;;-0.99;56.79
48527;BME280;34317;51.660;5.824;2022-12-18T00:26:23;102808.75;;;-1.03;56.86
48527;BME280;34317;51.660;5.824;2022-12-18T00:28:54;102797.25;;;-1.10;56.95
48527;BME280;34317;51.660;5.824;2022-12-18T00:31:24;102790.06;;;-1.17;56.75
48527;BME280;34317;51.660;5.824;2022-12-18T00:33:56;102791.63;;;-1.22;56.69
48527;BME280;34317;51.660;5.824;2022-12-18T00:36:24;102788.09;;;-1.24;56.86
48527;BME280;34317;51.660;5.824;2022-12-18T00:38:55;102778.47;;;-1.27;56.95
48527;BME280;34317;51.660;5.824;2022-12-18T00:41:23;102774.06;;;-1.29;57.20
48527;BME280;34317;51.660;5.824;2022-12-18T00:44:09;102789.53;;;-1.32;57.01
48527;BME280;34317;51.660;5.824;2022-12-18T00:46:37;102782.56;;;-1.33;57.20
48527;BME280;34317;51.660;5.824;2022-12-18T00:49:03;102786.88;;;-1.34;56.88
48527;BME280;34317;51.660;5.824;2022-12-18T00:51:30;102791.19;;;-1.34;57.28
48527;BME280;34317;51.660;5.824;2022-12-18T00:53:57;102782.50;;;-1.35;56.87
48527;BME280;34317;51.660;5.824;2022-12-18T00:56:24;102779.03;;;-1.35;56.94
48527;BME280;34317;51.660;5.824;2022-12-18T00:58:52;102780.78;;;-1.34;56.92
48527;BME280;34317;51.660;5.824;2022-12-18T01:01:19;102779.91;;;-1.35;56.96
48527;BME280;34317;51.660;5.824;2022-12-18T01:03:46;102787.66;;;-1.37;56.87
48527;BME280;34317;51.660;5.824;2022-12-18T01:06:16;102784.13;;;-1.39;57.03
48527;BME280;34317;51.660;5.824;2022-12-18T01:08:43;102775.38;;;-1.41;57.31
48527;BME280;34317;51.660;5.824;2022-12-18T01:11:13;102785.66;;;-1.44;57.17
48527;BME280;34317;51.660;5.824;2022-12-18T01:13:40;102794.19;;;-1.48;56.78
48527;BME280;34317;51.660;5.824;2022-12-18T01:16:08;102787.88;;;-1.54;57.06
48527;BME280;34317;51.660;5.824;2022-12-18T01:18:37;102785.09;;;-1.59;56.77
48527;BME280;34317;51.660;5.824;2022-12-18T01:21:07;102785.84;;;-1.63;56.78
48527;BME280;34317;51.660;5.824;2022-12-18T01:23:36;102797.94;;;-1.64;57.08
48527;BME280;34317;51.660;5.824;2022-12-18T01:26:07;102795.34;;;-1.64;56.90
48527;BME280;34317;51.660;5.824;2022-12-18T01:28:35;102809.22;;;-1.63;56.96
48527;BME280;34317;51.660;5.824;2022-12-18T01:33:37;102800.56;;;-1.62;56.91
48527;BME280;34317;51.660;5.824;2022-12-18T01:36:05;102793.63;;;-1.63;57.24
48527;BME280;34317;51.660;5.824;2022-12-18T01:38:32;102786.66;;;-1.64;57.12
48527;BME280;34317;51.660;5.824;2022-12-18T01:41:00;102786.66;;;-1.64;56.98
48527;BME280;34317;51.660;5.824;2022-12-18T01:46:13;102787.44;;;-1.67;57.22
48527;BME280;34317;51.660;5.824;2022-12-18T01:48:40;102783.03;;;-1.69;57.05
48527;BME280;34317;51.660;5.824;2022-12-18T01:51:08;102782.06;;;-1.71;56.97
48527;BME280;34317;51.660;5.824;2022-12-18T01:53:36;102793.28;;;-1.72;57.17
48527;BME280;34317;51.660;5.824;2022-12-18T01:56:04;102794.09;;;-1.73;57.28
48527;BME280;34317;51.660;5.824;2022-12-18T02:01:17;102791.41;;;-1.77;57.03
48527;BME280;34317;51.660;5.824;2022-12-18T02:03:44;102784.44;;;-1.78;56.88
48527;BME280;34317;51.660;5.824;2022-12-18T02:06:13;102783.56;;;-1.78;57.19
48527;BME280;34317;51.660;5.824;2022-12-18T02:08:48;102780.06;;;-1.79;56.92
48527;BME280;34317;51.660;5.824;2022-12-18T02:11:35;102786.09;;;-1.80;57.21
48527;BME280;34317;51.660;5.824;2022-12-18T02:16:43;102780.81;;;-1.83;57.10
48527;BME280;34317;51.660;5.824;2022-12-18T02:19:20;102780.81;;;-1.83;57.13
48527;BME280;34317;51.660;5.824;2022-12-18T02:21:58;102791.19;;;-1.83;56.59
48527;BME280;34317;51.660;5.824;2022-12-18T02:24:35;102778.88;;;-1.87;56.95
48527;BME280;34317;51.660;5.824;2022-12-18T02:27:05;102778.66;;;-1.93;56.57
48527;BME280;34317;51.660;5.824;2022-12-18T02:29:50;102780.19;;;-1.98;56.82
48527;BME280;34317;51.660;5.824;2022-12-18T02:32:25;102781.75;;;-2.03;56.92
48527;BME280;34317;51.660;5.824;2022-12-18T02:34:53;102779.03;;;-2.06;57.00
48527;BME280;34317;51.660;5.824;2022-12-18T02:37:24;102780.75;;;-2.07;57.08
48527;BME280;34317;51.660;5.824;2022-12-18T02:39:53;102781.56;;;-2.08;56.74
48527;BME280;34317;51.660;5.824;2022-12-18T02:42:22;102784.16;;;-2.08;57.06
48527;BME280;34317;51.660;5.824;2022-12-18T02:44:50;102785.88;;;-2.08;57.05
48527;BME280;34317;51.660;5.824;2022-12-18T02:47:24;102781.50;;;-2.09;57.32
48527;BME280;34317;51.660;5.824;2022-12-18T02:50:10;102774.56;;;-2.10;57.00
48527;BME280;34317;51.660;5.824;2022-12-18T02:52:55;102770.19;;;-2.11;57.01
48527;BME280;34317;51.660;5.824;2022-12-18T02:58:09;102763.94;;;-2.17;56.90
48527;BME280;34317;51.660;5.824;2022-12-18T03:03:10;102755.19;;;-2.19;56.83
48527;BME280;34317;51.660;5.824;2022-12-18T03:05:50;102749.06;;;-2.21;57.23
48527;BME280;34317;51.660;5.824;2022-12-18T03:08:21;102756.75;;;-2.24;56.95
48527;BME280;34317;51.660;5.824;2022-12-18T03:10:59;102753.22;;;-2.26;56.80
48527;BME280;34317;51.660;5.824;2022-12-18T03:13:28;102749.59;;;-2.29;56.44
48527;BME280;34317;51.660;5.824;2022-12-18T03:15:57;102753.78;;;-2.33;56.76
48527;BME280;34317;51.660;5.824;2022-12-18T03:18:29;102758.03;;;-2.35;56.64
48527;BME280;34317;51.660;5.824;2022-12-18T03:20:58;102770.06;;;-2.37;57.17
48527;BME280;34317;51.660;5.824;2022-12-18T03:23:27;102761.34;;;-2.39;56.85
48527;BME280;34317;51.660;5.824;2022-12-18T03:25:56;102762.22;;;-2.39;57.24
48527;BME280;34317;51.660;5.824;2022-12-18T03:28:30;102761.34;;;-2.39;57.09
48527;BME280;34317;51.660;5.824;2022-12-18T03:31:02;102769.94;;;-2.40;56.92
48527;BME280;34317;51.660;5.824;2022-12-18T03:33:34;102766.41;;;-2.42;57.04
48527;BME280;34317;51.660;5.824;2022-12-18T03:36:04;102762.84;;;-2.44;57.05
48527;BME280;34317;51.660;5.824;2022-12-18T03:38:32;102757.66;;;-2.44;57.18
48527;BME280;34317;51.660;5.824;2022-12-18T03:41:01;102755.06;;;-2.44;57.03
48527;BME280;34317;51.660;5.824;2022-12-18T03:46:33;102745.50;;;-2.45;57.08
48527;BME280;34317;51.660;5.824;2022-12-18T03:49:08;102736.91;;;-2.44;57.18
48527;BME280;34317;51.660;5.824;2022-12-18T03:54:06;102731.72;;;-2.44;57.22
48527;BME280;34317;51.660;5.824;2022-12-18T03:56:42;102719.56;;;-2.45;57.26
48527;BME280;34317;51.660;5.824;2022-12-18T03:59:11;102719.56;;;-2.45;57.11
48527;BME280;34317;51.660;5.824;2022-12-18T04:01:42;102716.16;;;-2.44;56.70
48527;BME280;34317;51.660;5.824;2022-12-18T04:04:14;102716.16;;;-2.44;57.31
48527;BME280;34317;51.660;5.824;2022-12-18T04:06:43;102714.38;;;-2.45;56.96
48527;BME280;34317;51.660;5.824;2022-12-18T04:09:12;102713.56;;;-2.44;57.29
48527;BME280;34317;51.660;5.824;2022-12-18T04:11:43;102714.50;;;-2.42;57.16
48527;BME280;34317;51.660;5.824;2022-12-18T04:14:14;102706.72;;;-2.42;57.08
48527;BME280;34317;51.660;5.824;2022-12-18T04:16:44;102709.31;;;-2.42;57.35
48527;BME280;34317;51.660;5.824;2022-12-18T04:19:14;102713.66;;;-2.41;57.31
48527;BME280;34317;51.660;5.824;2022-12-18T04:21:43;102708.47;;;-2.41;57.00
48527;BME280;34317;51.660;5.824;2022-12-18T04:24:12;102705.88;;;-2.41;57.44
48527;BME280;34317;51.660;5.824;2022-12-18T04:26:46;102702.47;;;-2.40;56.70
48527;BME280;34317;51.660;5.824;2022-12-18T04:29:20;102692.16;;;-2.39;57.45
48527;BME280;34317;51.660;5.824;2022-12-18T04:31:47;102688.78;;;-2.36;57.17
48527;BME280;34317;51.660;5.824;2022-12-18T04:34:15;102681.84;;;-2.37;57.09
48527;BME280;34317;51.660;5.824;2022-12-18T04:36:48;102692.22;;;-2.37;57.21
48527;BME280;34317;51.660;5.824;2022-12-18T04:39:15;102687.03;;;-2.37;56.92
48527;BME280;34317;51.660;5.824;2022-12-18T04:41:43;102690.56;;;-2.35;56.85
48527;BME280;34317;51.660;5.824;2022-12-18T04:44:11;102680.19;;;-2.35;57.42
48527;BME280;34317;51.660;5.824;2022-12-18T04:46:38;102687.13;;;-2.34;57.27
48527;BME280;34317;51.660;5.824;2022-12-18T04:49:05;102692.31;;;-2.34;57.16
48527;BME280;34317;51.660;5.824;2022-12-18T04:51:32;102694.09;;;-2.33;56.96
48527;BME280;34317;51.660;5.824;2022-12-18T04:53:59;102688.91;;;-2.33;57.00
48527;BME280;34317;51.660;5.824;2022-12-18T04:56:26;102698.44;;;-2.32;57.05
48527;BME280;34317;51.660;5.824;2022-12-18T04:58:53;102695.97;;;-2.29;56.80
48527;BME280;34317;51.660;5.824;2022-12-18T05:01:20;102699.53;;;-2.27;57.26
48527;BME280;34317;51.660;5.824;2022-12-18T05:03:47;102702.19;;;-2.25;56.79
48527;BME280;34317;51.660;5.824;2022-12-18T05:06:14;102704.84;;;-2.24;57.14
48527;BME280;34317;51.660;5.824;2022-12-18T05:08:41;102706.59;;;-2.23;57.31
48527;BME280;34317;51.660;5.824;2022-12-18T05:11:09;102717.81;;;-2.24;57.37
48527;BME280;34317;51.660;5.824;2022-12-18T05:13:37;102723.09;;;-2.21;56.97
48527;BME280;34317;51.660;5.824;2022-12-18T05:16:05;102732.66;;;-2.20;56.87
48527;BME280;34317;51.660;5.824;2022-12-18T05:18:32;102735.34;;;-2.18;57.33
48527;BME280;34317;51.660;5.824;2022-12-18T05:20:59;102751.78;;;-2.18;57.34
48527;BME280;34317;51.660;5.824;2022-12-18T05:23:26;102751.78;;;-2.18;57.15
48527;BME280;34317;51.660;5.824;2022-12-18T05:25:58;102753.56;;;-2.17;57.20
48527;BME280;34317;51.660;5.824;2022-12-18T05:28:26;102753.56;;;-2.17;57.06
48527;BME280;34317;51.660;5.824;2022-12-18T05:30:54;102748.25;;;-2.20;56.87
48527;BME280;34317;51.660;5.824;2022-12-18T05:33:22;102756.84;;;-2.21;56.93
48527;BME280;34317;51.660;5.824;2022-12-18T05:35:54;102741.97;;;-2.25;56.94
48527;BME280;34317;51.660;5.824;2022-12-18T05:38:21;102742.69;;;-2.29;56.74
48527;BME280;34317;51.660;5.824;2022-12-18T05:40:49;102746.09;;;-2.30;56.49
48527;BME280;34317;51.660;5.824;2022-12-18T05:43:16;102746.00;;;-2.33;57.05
48527;BME280;34317;51.660;5.824;2022-12-18T05:45:47;102746.88;;;-2.32;57.09
48527;BME280;34317;51.660;5.824;2022-12-18T05:48:15;102737.34;;;-2.33;57.01
48527;BME280;34317;51.660;5.824;2022-12-18T05:50:42;102734.78;;;-2.32;57.08
48527;BME280;34317;51.660;5.824;2022-12-18T05:53:11;102725.25;;;-2.33;57.00
48527;BME280;34317;51.660;5.824;2022-12-18T05:55:38;102719.94;;;-2.36;56.46
48527;BME280;34317;51.660;5.824;2022-12-18T05:58:07;102719.81;;;-2.39;56.84
48527;BME280;34317;51.660;5.824;2022-12-18T06:00:36;102714.50;;;-2.42;56.65
48527;BME280;34317;51.660;5.824;2022-12-18T06:03:07;102713.56;;;-2.44;57.15
48527;BME280;34317;51.660;5.824;2022-12-18T06:05:35;102704.00;;;-2.45;56.56
48527;BME280;34317;51.660;5.824;2022-12-18T06:08:03;102709.19;;;-2.45;56.70
48527;BME280;34317;51.660;5.824;2022-12-18T06:10:30;102702.25;;;-2.46;56.95
48527;BME280;34317;51.660;5.824;2022-12-18T06:12:57;102691.97;;;-2.43;57.06
48527;BME280;34317;51.660;5.824;2022-12-18T06:15:23;102682.50;;;-2.43;57.44
48527;BME280;34317;51.660;5.824;2022-12-18T06:17:51;102676.59;;;-2.39;57.39
48527;BME280;34317;51.660;5.824;2022-12-18T06:20:18;102676.69;;;-2.36;56.86
48527;BME280;34317;51.660;5.824;2022-12-18T06:22:45;102680.28;;;-2.32;57.32
48527;BME280;34317;51.660;5.824;2022-12-18T06:25:12;102683.94;;;-2.27;57.37
48527;BME280;34317;51.660;5.824;2022-12-18T06:27:39;102688.41;;;-2.23;57.65
48527;BME280;34317;51.660;5.824;2022-12-18T06:30:08;102693.81;;;-2.18;56.97
48527;BME280;34317;51.660;5.824;2022-12-18T06:32:35;102686.16;;;-2.13;57.64
48527;BME280;34317;51.660;5.824;2022-12-18T06:35:02;102684.63;;;-2.08;57.04
48527;BME280;34317;51.660;5.824;2022-12-18T06:37:28;102674.38;;;-2.05;57.40
48527;BME280;34317;51.660;5.824;2022-12-18T06:39:57;102683.19;;;-2.00;56.96
48527;BME280;34317;51.660;5.824;2022-12-18T06:42:24;102679.78;;;-1.99;57.37
48527;BME280;34317;51.660;5.824;2022-12-18T06:44:51;102676.47;;;-1.95;57.48
48527;BME280;34317;51.660;5.824;2022-12-18T06:47:18;102669.63;;;-1.93;57.43
48527;BME280;34317;51.660;5.824;2022-12-18T06:49:44;102666.28;;;-1.89;57.09
48527;BME280;34317;51.660;5.824;2022-12-18T06:52:11;102661.09;;;-1.89;57.27
48527;BME280;34317;51.660;5.824;2022-12-18T06:54:41;102658.63;;;-1.86;57.31
48527;BME280;34317;51.660;5.824;2022-12-18T06:57:08;102661.22;;;-1.86;57.19
48527;BME280;34317;51.660;5.824;2022-12-18T06:59:35;102666.53;;;-1.83;57.47
48527;BME280;34317;51.660;5.824;2022-12-18T07:02:01;102668.28;;;-1.82;57.05
48527;BME280;34317;51.660;5.824;2022-12-18T07:04:29;102666.63;;;-1.80;57.09
48527;BME280;34317;51.660;5.824;2022-12-18T07:06:56;102667.63;;;-1.76;57.13
48527;BME280;34317;51.660;5.824;2022-12-18T07:09:24;102663.41;;;-1.72;57.17
48527;BME280;34317;51.660;5.824;2022-12-18T07:11:52;102661.88;;;-1.67;57.37
48527;BME280;34317;51.660;5.824;2022-12-18T07:14:19;102663.75;;;-1.63;57.24
48527;BME280;34317;51.660;5.824;2022-12-18T07:16:46;102662.22;;;-1.57;57.60
48527;BME280;34317;51.660;5.824;2022-12-18T07:19:13;102650.22;;;-1.53;57.33
48527;BME280;34317;51.660;5.824;2022-12-18T07:21:40;102651.31;;;-1.46;57.38
48527;BME280;34317;51.660;5.824;2022-12-18T07:24:06;102651.56;;;-1.39;57.40
48527;BME280;34317;51.660;5.824;2022-12-18T07:26:33;102652.63;;;-1.33;57.55
48527;BME280;34317;51.660;5.824;2022-12-18T07:29:00;102643.25;;;-1.28;57.26
48527;BME280;34317;51.660;5.824;2022-12-18T07:31:27;102643.41;;;-1.24;57.26
48527;BME280;34317;51.660;5.824;2022-12-18T07:33:54;102643.53;;;-1.19;57.49
48527;BME280;34317;51.660;5.824;2022-12-18T07:36:21;102638.44;;;-1.16;57.41
48527;BME280;34317;51.660;5.824;2022-12-18T07:38:49;102637.72;;;-1.12;57.31
48527;BME280;34317;51.660;5.824;2022-12-18T07:41:16;102639.56;;;-1.08;57.36
48527;BME280;34317;51.660;5.824;2022-12-18T07:43:43;102637.91;;;-1.06;57.64
48527;BME280;34317;51.660;5.824;2022-12-18T07:46:10;102637.19;;;-1.02;57.42
48527;BME280;34317;51.660;5.824;2022-12-18T07:48:39;102629.47;;;-0.99;57.02
48527;BME280;34317;51.660;5.824;2022-12-18T07:51:07;102612.19;;;-0.96;57.11
48527;BME280;34317;51.660;5.824;2022-12-18T07:53:37;102605.31;;;-0.94;57.09
48527;BME280;34317;51.660;5.824;2022-12-18T07:56:09;102598.44;;;-0.92;57.32
48527;BME280;34317;51.660;5.824;2022-12-18T07:58:54;102598.53;;;-0.89;57.37
48527;BME280;34317;51.660;5.824;2022-12-18T08:01:21;102605.59;;;-0.85;57.50
48527;BME280;34317;51.660;5.824;2022-12-18T08:03:49;102610.91;;;-0.82;57.28
48527;BME280;34317;51.660;5.824;2022-12-18T08:06:18;102598.81;;;-0.80;57.68
48527;BME280;34317;51.660;5.824;2022-12-18T08:08:48;102592.06;;;-0.75;57.65
48527;BME280;34317;51.660;5.824;2022-12-18T08:11:16;102597.31;;;-0.72;57.30
48527;BME280;34317;51.660;5.824;2022-12-18T08:13:44;102589.69;;;-0.67;57.43
48527;BME280;34317;51.660;5.824;2022-12-18T08:16:11;102590.66;;;-0.64;57.44
48527;BME280;34317;51.660;5.824;2022-12-18T08:18:38;102585.63;;;-0.57;57.23
48527;BME280;34317;51.660;5.824;2022-12-18T08:21:12;102590.06;;;-0.53;57.31
48527;BME280;34317;51.660;5.824;2022-12-18T08:23:39;102591.09;;;-0.48;57.47
48527;BME280;34317;51.660;5.824;2022-12-18T08:26:09;102587.72;;;-0.44;57.75
48527;BME280;34317;51.660;5.824;2022-12-18T08:28:36;102588.75;;;-0.39;57.63
48527;BME280;34317;51.660;5.824;2022-12-18T08:31:03;102598.41;;;-0.35;57.68
48527;BME280;34317;51.660;5.824;2022-12-18T08:33:31;102589.00;;;-0.30;57.36
48527;BME280;34317;51.660;5.824;2022-12-18T08:35:58;102593.50;;;-0.24;57.57
48527;BME280;34317;51.660;5.824;2022-12-18T08:38:25;102590.19;;;-0.18;57.90
48527;BME280;34317;51.660;5.824;2022-12-18T08:40:59;102585.16;;;-0.12;57.72
48527;BME280;34317;51.660;5.824;2022-12-18T08:43:26;102573.13;;;-0.07;57.83
48527;BME280;34317;51.660;5.824;2022-12-18T08:46:12;102584.53;;;-0.02;57.77
48527;BME280;34317;51.660;5.824;2022-12-18T08:48:42;102602.97;;;0.04;57.69
48527;BME280;34317;51.660;5.824;2022-12-18T08:51:09;102596.13;;;0.09;57.68
48527;BME280;34317;51.660;5.824;2022-12-18T08:53:36;102605.81;;;0.15;57.89
48527;BME280;34317;51.660;5.824;2022-12-18T08:56:04;102589.47;;;0.21;57.48
48527;BME280;34317;51.660;5.824;2022-12-18T08:58:33;102578.31;;;0.26;57.76
48527;BME280;34317;51.660;5.824;2022-12-18T09:01:01;102576.69;;;0.30;57.68
48527;BME280;34317;51.660;5.824;2022-12-18T09:03:28;102578.56;;;0.35;57.56
48527;BME280;34317;51.660;5.824;2022-12-18T09:05:56;102574.31;;;0.39;57.64
48527;BME280;34317;51.660;5.824;2022-12-18T09:08:22;102569.22;;;0.44;57.70
48527;BME280;34317;51.660;5.824;2022-12-18T09:10:50;102577.19;;;0.50;57.64
48527;BME280;34317;51.660;5.824;2022-12-18T09:13:17;102586.88;;;0.55;57.62
48527;BME280;34317;51.660;5.824;2022-12-18T09:15:45;102576.59;;;0.62;57.65
48527;BME280;34317;51.660;5.824;2022-12-18T09:18:12;102566.31;;;0.66;57.63
48527;BME280;34317;51.660;5.824;2022-12-18T09:20:40;102559.47;;;0.73;57.77
48527;BME280;34317;51.660;5.824;2022-12-18T09:23:06;102557.88;;;0.78;57.54
48527;BME280;34317;51.660;5.824;2022-12-18T09:25:34;102574.47;;;0.82;57.75
48527;BME280;34317;51.660;5.824;2022-12-18T09:28:03;102572.88;;;0.87;57.56
48527;BME280;34317;51.660;5.824;2022-12-18T09:30:30;102587.78;;;0.92;57.22
48527;BME280;34317;51.660;5.824;2022-12-18T09:33:00;102576.56;;;0.96;57.49
48527;BME280;34317;51.660;5.824;2022-12-18T09:35:27;102576.69;;;1.03;57.73
48527;BME280;34317;51.660;5.824;2022-12-18T09:37:54;102572.47;;;1.08;57.58
48527;BME280;34317;51.660;5.824;2022-12-18T09:40:25;102575.19;;;1.14;57.60
48527;BME280;34317;51.660;5.824;2022-12-18T09:42:56;102578.81;;;1.19;57.43
48527;BME280;34317;51.660;5.824;2022-12-18T09:45:24;102567.56;;;1.23;57.48
48527;BME280;34317;51.660;5.824;2022-12-18T09:47:51;102564.19;;;1.27;57.50
48527;BME280;34317;51.660;5.824;2022-12-18T09:50:24;102555.56;;;1.31;57.54
48527;BME280;34317;51.660;5.824;2022-12-18T09:52:53;102559.16;;;1.36;57.54
48527;BME280;34317;51.660;5.824;2022-12-18T09:55:27;102563.63;;;1.42;57.36
48527;BME280;34317;51.660;5.824;2022-12-18T09:58:06;102567.22;;;1.47;57.54
48527;BME280;34317;51.660;5.824;2022-12-18T10:00:34;102564.69;;;1.52;57.51
48527;BME280;34317;51.660;5.824;2022-12-18T10:03:02;102554.34;;;1.58;57.41
48527;BME280;34317;51.660;5.824;2022-12-18T10:08:12;102540.63;;;1.68;57.45
48527;BME280;34317;51.660;5.824;2022-12-18T10:10:48;102529.44;;;1.74;57.45
48527;BME280;34317;51.660;5.824;2022-12-18T10:16:09;102527.00;;;1.83;57.50
48527;BME280;34317;51.660;5.824;2022-12-18T10:18:55;102519.25;;;1.89;57.51
48527;BME280;34317;51.660;5.824;2022-12-18T10:21:32;102527.16;;;1.94;57.45
48527;BME280;34317;51.660;5.824;2022-12-18T10:24:08;102516.78;;;1.97;57.42
48527;BME280;34317;51.660;5.824;2022-12-18T10:26:37;102520.38;;;2.05;57.49
48527;BME280;34317;51.660;5.824;2022-12-18T10:29:11;102517.91;;;2.11;57.49
48527;BME280;34317;51.660;5.824;2022-12-18T10:31:38;102520.59;;;2.18;57.48
48527;BME280;34317;51.660;5.824;2022-12-18T10:34:09;102530.34;;;2.26;57.30
48527;BME280;34317;51.660;5.824;2022-12-18T10:36:36;102534.81;;;2.32;57.46
48527;BME280;34317;51.660;5.824;2022-12-18T10:41:43;102521.06;;;2.45;57.19
48527;BME280;34317;51.660;5.824;2022-12-18T10:44:11;102510.63;;;2.47;57.27
48527;BME280;34317;51.660;5.824;2022-12-18T10:46:38;102512.47;;;2.52;57.19
48527;BME280;34317;51.660;5.824;2022-12-18T10:49:17;102506.41;;;2.57;57.35
48527;BME280;34317;51.660;5.824;2022-12-18T10:51:45;102495.97;;;2.60;57.22
48527;BME280;34317;51.660;5.824;2022-12-18T10:54:21;102492.56;;;2.62;56.88
48527;BME280;34317;51.660;5.824;2022-12-18T10:56:49;102484.75;;;2.64;57.18
48527;BME280;34317;51.660;5.824;2022-12-18T10:59:16;102483.88;;;2.66;57.09
48527;BME280;34317;51.660;5.824;2022-12-18T11:01:56;102468.25;;;2.71;57.19
48527;BME280;34317;51.660;5.824;2022-12-18T11:04:25;102467.44;;;2.75;57.05
48527;BME280;34317;51.660;5.824;2022-12-18T11:06:56;102457.06;;;2.81;57.11
48527;BME280;34317;51.660;5.824;2022-12-18T11:09:24;102450.16;;;2.86;57.15
48527;BME280;34317;51.660;5.824;2022-12-18T11:11:53;102442.31;;;2.89;56.99
48527;BME280;34317;51.660;5.824;2022-12-18T11:14:22;102456.34;;;2.93;56.99
48527;BME280;34317;51.660;5.824;2022-12-18T11:16:50;102450.25;;;2.96;56.72
48527;BME280;34317;51.660;5.824;2022-12-18T11:19:39;102444.19;;;2.98;56.78
48527;BME280;34317;51.660;5.824;2022-12-18T11:22:17;102432.88;;;3.01;56.61
48527;BME280;34317;51.660;5.824;2022-12-18T11:24:52;102432.91;;;3.04;56.84
48527;BME280;34317;51.660;5.824;2022-12-18T11:27:40;102432.94;;;3.07;56.52
48527;BME280;34317;51.660;5.824;2022-12-18T11:30:21;102430.38;;;3.10;56.54
48527;BME280;34317;51.660;5.824;2022-12-18T11:33:34;102431.25;;;3.12;56.75
48527;BME280;34317;51.660;5.824;2022-12-18T11:35:49;102422.56;;;3.16;56.54
48527;BME280;34317;51.660;5.824;2022-12-18T11:40:44;102420.94;;;3.27;56.80
48527;BME280;34317;51.660;5.824;2022-12-18T11:43:16;102421.00;;;3.30;56.62
48527;BME280;34317;51.660;5.824;2022-12-18T11:48:49;102439.47;;;3.43;56.75
48527;BME280;34317;51.660;5.824;2022-12-18T11:51:21;102432.50;;;3.46;56.54
48527;BME280;34317;51.660;5.824;2022-12-18T11:53:53;102433.41;;;3.50;56.73
48527;BME280;34317;51.660;5.824;2022-12-18T11:56:30;102431.72;;;3.55;56.47
48527;BME280;34317;51.660;5.824;2022-12-18T11:59:09;102416.03;;;3.58;56.47
48527;BME280;34317;51.660;5.824;2022-12-18T12:12:24;102395.22;;;3.77;56.39
48527;BME280;34317;51.660;5.824;2022-12-18T12:15:10;102395.22;;;3.77;56.59
48527;BME280;34317;51.660;5.824;2022-12-18T12:17:45;102384.72;;;3.77;56.25
48527;BME280;34317;51.660;5.824;2022-12-18T12:35:46;102372.63;;;3.91;56.13
48527;BME280;34317;51.660;5.824;2022-12-18T12:38:16;102363.00;;;3.92;56.31
48527;BME280;34317;51.660;5.824;2022-12-18T12:40:51;102372.66;;;3.94;56.08
48527;BME280;34317;51.660;5.824;2022-12-18T12:46:16;102353.44;;;3.95;56.24
48527;BME280;34317;51.660;5.824;2022-12-18T12:48:48;102355.19;;;3.96;56.31
48527;BME280;34317;51.660;5.824;2022-12-18T12:51:20;102343.81;;;3.97;56.10
48527;BME280;34317;51.660;5.824;2022-12-18T12:53:48;102342.09;;;3.98;56.02
48527;BME280;34317;51.660;5.824;2022-12-18T12:56:16;102330.72;;;3.97;55.95
48527;BME280;34317;51.660;5.824;2022-12-18T13:01:38;102320.25;;;4.00;55.92
48527;BME280;34317;51.660;5.824;2022-12-18T13:06:43;102314.16;;;4.03;56.09
48527;BME280;34317;51.660;5.824;2022-12-18T13:09:12;102313.28;;;4.02;55.96
48527;BME280;34317;51.660;5.824;2022-12-18T13:11:46;102316.78;;;4.01;55.67
48527;BME280;34317;51.660;5.824;2022-12-18T13:14:33;102303.66;;;3.98;55.83
48527;BME280;34317;51.660;5.824;2022-12-18T13:20:21;102299.28;;;4.00;56.18
48527;BME280;34317;51.660;5.824;2022-12-18T13:27:57;102301.06;;;4.04;55.89
48527;BME280;34317;51.660;5.824;2022-12-18T13:43:26;102275.75;;;4.09;55.90
48527;BME280;34317;51.660;5.824;2022-12-18T13:48:31;102281.84;;;4.08;55.99
48527;BME280;34317;51.660;5.824;2022-12-18T13:51:00;102287.09;;;4.08;55.84
48527;BME280;34317;51.660;5.824;2022-12-18T13:53:33;102288.84;;;4.09;56.09
48527;BME280;34317;51.660;5.824;2022-12-18T13:56:01;102287.13;;;4.12;55.81
48527;BME280;34317;51.660;5.824;2022-12-18T13:58:29;102270.53;;;4.11;56.05
48527;BME280;34317;51.660;5.824;2022-12-18T14:00:56;102272.25;;;4.14;56.14
48527;BME280;34317;51.660;5.824;2022-12-18T14:03:26;102273.16;;;4.16;55.88
48527;BME280;34317;51.660;5.824;2022-12-18T14:05:56;102269.66;;;4.17;55.88
48527;BME280;34317;51.660;5.824;2022-12-18T14:08:25;102261.81;;;4.18;55.76
48527;BME280;34317;51.660;5.824;2022-12-18T14:10:54;102264.44;;;4.17;55.78
48527;BME280;34317;51.660;5.824;2022-12-18T14:13:27;102267.06;;;4.17;56.07
48527;BME280;34317;51.660;5.824;2022-12-18T14:15:55;102259.19;;;4.17;56.04
48527;BME280;34317;51.660;5.824;2022-12-18T14:18:24;102261.81;;;4.17;55.84
48527;BME280;34317;51.660;5.824;2022-12-18T14:20:52;102266.16;;;4.18;55.95
48527;BME280;34317;51.660;5.824;2022-12-18T14:23:39;102260.91;;;4.18;55.76
48527;BME280;34317;51.660;5.824;2022-12-18T14:26:21;102250.44;;;4.15;55.69
48527;BME280;34317;51.660;5.824;2022-12-18T14:28:48;102246.94;;;4.13;55.62
48527;BME280;34317;51.660;5.824;2022-12-18T14:31:22;102249.56;;;4.13;55.97
48527;BME280;34317;51.660;5.824;2022-12-18T14:33:50;102252.19;;;4.13;56.01
48527;BME280;34317;51.660;5.824;2022-12-18T14:36:19;102241.69;;;4.13;55.97
48527;BME280;34317;51.660;5.824;2022-12-18T14:38:52;102255.66;;;4.12;55.72
48527;BME280;34317;51.660;5.824;2022-12-18T14:41:20;102248.66;;;4.12;55.66